Time;durP1;ratioP1;P1;durP2;ratioP2;P2;SDS_P1;SDS_P2;PMS_P1;PMS_P2;Temp;Humidity;BMP_temperature;BMP_pressure;BME280_temperature;BME280_humidity;BME280_pressure;Samples;Min_cycle;Max_cycle;Signal;HPM_P1;HPM_P2
2023/01/20 00:02:11;;;;;;;;;;;19.00;43.10;;;;;;5048992;28;19928;-64
2023/01/20 00:04:38;;;;;;;;;;;18.90;43.00;;;;;;5050720;28;20341;-64
2023/01/20 00:07:04;;;;;;;;;;;18.90;43.00;;;;;;5050993;28;19971;-63
2023/01/20 00:09:33;;;;;;;;;;;18.90;43.00;;;;;;5051083;28;19924;-64
2023/01/20 00:12:00;;;;;;;;;;;19.00;43.10;;;;;;5051497;28;19937;-64
2023/01/20 00:14:26;;;;;;;;;;;18.90;43.00;;;;;;5050805;28;19931;-63
2023/01/20 00:16:56;;;;;;;;;;;19.00;43.10;;;;;;5050214;28;19920;-64
2023/01/20 00:19:23;;;;;;;;;;;19.00;43.10;;;;;;5049947;28;19971;-63
2023/01/20 00:21:49;;;;;;;;;;;18.90;43.00;;;;;;5061863;28;19921;-63
2023/01/20 00:24:16;;;;;;;;;;;19.00;43.10;;;;;;5050894;28;20379;-63
2023/01/20 00:26:44;;;;;;;;;;;19.00;43.10;;;;;;5050501;28;19928;-63
2023/01/20 00:29:11;;;;;;;;;;;18.90;43.00;;;;;;5059820;28;19921;-64
2023/01/20 00:31:38;;;;;;;;;;;18.90;43.00;;;;;;5051286;28;19921;-65
2023/01/20 00:34:05;;;;;;;;;;;19.00;43.10;;;;;;5050561;28;19986;-65
2023/01/20 00:36:31;;;;;;;;;;;18.90;43.00;;;;;;5050279;28;19925;-64
2023/01/20 00:38:58;;;;;;;;;;;18.90;43.00;;;;;;5050383;28;19920;-66
2023/01/20 00:41:25;;;;;;;;;;;18.90;43.00;;;;;;5050731;28;20282;-65
2023/01/20 00:43:53;;;;;;;;;;;18.90;43.00;;;;;;5050727;28;19952;-65
2023/01/20 00:46:21;;;;;;;;;;;18.90;43.00;;;;;;5077574;28;20302;-64
2023/01/20 00:48:48;;;;;;;;;;;18.90;43.00;;;;;;5072727;28;19925;-65
2023/01/20 00:51:15;;;;;;;;;;;18.90;43.00;;;;;;5051651;28;19964;-65
2023/01/20 00:53:42;;;;;;;;;;;18.90;43.00;;;;;;5050316;28;19925;-64
2023/01/20 00:56:08;;;;;;;;;;;18.90;43.00;;;;;;5049924;28;19925;-65
2023/01/20 00:58:35;;;;;;;;;;;18.90;43.00;;;;;;5050225;28;19955;-65
2023/01/20 01:01:03;;;;;;;;;;;18.90;43.10;;;;;;5048610;28;19933;-64
2023/01/20 01:03:30;;;;;;;;;;;18.90;43.00;;;;;;5075991;28;19921;-65
2023/01/20 01:06:04;;;;;;;;;;;18.90;43.10;;;;;;5049722;28;19958;-65
2023/01/20 01:08:31;;;;;;;;;;;18.90;43.10;;;;;;5075479;28;20015;-65
2023/01/20 01:10:58;;;;;;;;;;;18.90;43.10;;;;;;5051623;28;20248;-65
2023/01/20 01:13:25;;;;;;;;;;;18.90;43.10;;;;;;5051707;28;20411;-65
2023/01/20 01:15:51;;;;;;;;;;;18.90;43.00;;;;;;5049860;28;19979;-66
2023/01/20 01:18:20;;;;;;;;;;;18.90;43.10;;;;;;5047142;28;19939;-66
2023/01/20 01:20:46;;;;;;;;;;;18.90;43.10;;;;;;5077633;28;19925;-64
2023/01/20 01:23:13;;;;;;;;;;;18.90;43.10;;;;;;5049586;28;19925;-63
2023/01/20 01:25:40;;;;;;;;;;;18.90;43.10;;;;;;5049820;28;19927;-64
2023/01/20 01:28:07;;;;;;;;;;;18.90;43.10;;;;;;5049503;28;19921;-63
2023/01/20 01:30:34;;;;;;;;;;;18.90;43.00;;;;;;5050418;28;20238;-64
2023/01/20 01:33:00;;;;;;;;;;;18.90;43.10;;;;;;5048814;28;19921;-64
2023/01/20 01:35:29;;;;;;;;;;;18.90;43.10;;;;;;5048461;28;19933;-64
2023/01/20 01:37:55;;;;;;;;;;;18.90;43.10;;;;;;5049342;28;20429;-64
2023/01/20 01:40:22;;;;;;;;;;;18.90;43.10;;;;;;5049746;28;19936;-63
2023/01/20 01:42:49;;;;;;;;;;;18.90;43.70;;;;;;5049415;28;20339;-63
2023/01/20 01:45:23;;;;;;;;;;;18.90;43.10;;;;;;5058120;28;19975;-64
2023/01/20 01:47:52;;;;;;;;;;;18.90;43.10;;;;;;5056686;28;19921;-64
2023/01/20 01:50:19;;;;;;;;;;;18.90;43.10;;;;;;5050186;28;19978;-63
2023/01/20 01:52:48;;;;;;;;;;;18.90;43.10;;;;;;5049330;28;19920;-64
2023/01/20 01:55:15;;;;;;;;;;;18.90;43.10;;;;;;5043790;28;20017;-64
2023/01/20 01:57:42;;;;;;;;;;;18.90;43.70;;;;;;5048977;28;19986;-64
2023/01/20 02:00:12;;;;;;;;;;;18.90;43.10;;;;;;5053734;28;19933;-63
2023/01/20 02:02:38;;;;;;;;;;;18.90;43.10;;;;;;5056893;28;20004;-64
2023/01/20 02:05:06;;;;;;;;;;;18.90;43.20;;;;;;5048229;28;20401;-64
2023/01/20 02:07:33;;;;;;;;;;;18.90;43.10;;;;;;5047244;28;19925;-64
2023/01/20 02:10:01;;;;;;;;;;;18.90;43.10;;;;;;5048520;28;19920;-64
2023/01/20 02:12:28;;;;;;;;;;;18.90;43.10;;;;;;5050840;28;19921;-64
2023/01/20 02:14:55;;;;;;;;;;;18.90;43.10;;;;;;5048498;28;19925;-64
2023/01/20 02:17:24;;;;;;;;;;;18.90;43.10;;;;;;5071203;28;19925;-64
2023/01/20 02:19:55;;;;;;;;;;;18.90;43.10;;;;;;5073421;28;19920;-64
2023/01/20 02:22:24;;;;;;;;;;;18.90;43.10;;;;;;5049253;28;19968;-64
2023/01/20 02:25:10;;;;;;;;;;;18.90;43.10;;;;;;5073061;28;20290;-64
2023/01/20 02:27:50;;;;;;;;;;;18.90;43.10;;;;;;5060937;28;19925;-64
2023/01/20 02:30:32;;;;;;;;;;;18.90;43.10;;;;;;5060398;28;19925;-64
2023/01/20 02:33:00;;;;;;;;;;;18.90;43.10;;;;;;5026814;28;19925;-64
2023/01/20 02:35:28;;;;;;;;;;;18.90;43.10;;;;;;5052037;28;19921;-63
2023/01/20 02:37:57;;;;;;;;;;;18.90;43.10;;;;;;5054796;28;19921;-64
2023/01/20 02:40:26;;;;;;;;;;;18.90;43.20;;;;;;5048972;28;19921;-64
2023/01/20 02:42:56;;;;;;;;;;;18.90;43.20;;;;;;5047285;28;19921;-64
2023/01/20 02:45:23;;;;;;;;;;;18.90;43.20;;;;;;5047625;28;19928;-63
2023/01/20 02:47:51;;;;;;;;;;;18.90;43.20;;;;;;5049508;28;20003;-64
2023/01/20 02:50:20;;;;;;;;;;;18.90;43.20;;;;;;5049285;28;19921;-64
2023/01/20 02:52:48;;;;;;;;;;;18.90;43.10;;;;;;5048634;28;19982;-64
2023/01/20 02:55:16;;;;;;;;;;;18.90;43.30;;;;;;5045540;28;19935;-64
2023/01/20 02:57:44;;;;;;;;;;;18.90;43.20;;;;;;5076676;28;19924;-64
2023/01/20 03:00:12;;;;;;;;;;;18.90;43.20;;;;;;5045285;28;19971;-64
2023/01/20 03:02:39;;;;;;;;;;;18.90;43.20;;;;;;5047917;28;19928;-64
2023/01/20 03:05:07;;;;;;;;;;;18.90;43.20;;;;;;5053959;28;19921;-64
2023/01/20 03:07:35;;;;;;;;;;;18.90;43.20;;;;;;5056484;28;19982;-64
2023/01/20 03:10:03;;;;;;;;;;;18.90;43.20;;;;;;5048155;28;19967;-64
2023/01/20 03:12:31;;;;;;;;;;;18.90;43.20;;;;;;5047873;28;19940;-64
2023/01/20 03:14:57;;;;;;;;;;;18.90;43.20;;;;;;5047989;28;19927;-63
2023/01/20 03:17:24;;;;;;;;;;;18.90;43.20;;;;;;5046865;28;19967;-63
2023/01/20 03:19:51;;;;;;;;;;;18.90;43.20;;;;;;5047567;28;19927;-63
2023/01/20 03:22:18;;;;;;;;;;;18.90;43.20;;;;;;5048307;28;20408;-63
2023/01/20 03:24:46;;;;;;;;;;;18.90;43.20;;;;;;5049559;28;19942;-63
2023/01/20 03:27:13;;;;;;;;;;;18.90;43.20;;;;;;5048204;28;19924;-63
2023/01/20 03:29:39;;;;;;;;;;;18.90;43.20;;;;;;5046938;28;19920;-63
2023/01/20 03:32:07;;;;;;;;;;;18.90;43.20;;;;;;5047239;28;19928;-63
2023/01/20 03:34:35;;;;;;;;;;;18.90;43.20;;;;;;5047430;28;19928;-63
2023/01/20 03:37:01;;;;;;;;;;;18.90;43.20;;;;;;5047604;28;19991;-63
2023/01/20 03:39:28;;;;;;;;;;;18.90;43.20;;;;;;5049042;28;19967;-63
2023/01/20 03:42:00;;;;;;;;;;;18.90;43.30;;;;;;5048089;28;19921;-62
2023/01/20 03:44:28;;;;;;;;;;;18.90;43.20;;;;;;5047658;28;19921;-62
2023/01/20 03:46:57;;;;;;;;;;;18.90;43.20;;;;;;5046654;28;20023;-65
2023/01/20 03:49:26;;;;;;;;;;;18.90;43.20;;;;;;5048090;28;19921;-63
2023/01/20 03:51:55;;;;;;;;;;;18.90;43.30;;;;;;5048597;28;19921;-63
2023/01/20 03:54:22;;;;;;;;;;;18.90;43.30;;;;;;5048949;28;20357;-63
2023/01/20 03:56:51;;;;;;;;;;;18.90;43.30;;;;;;5060095;28;19920;-63
2023/01/20 03:59:19;;;;;;;;;;;18.90;43.30;;;;;;5050938;28;19921;-64
2023/01/20 04:01:45;;;;;;;;;;;18.90;43.30;;;;;;5050946;28;19921;-63
2023/01/20 04:04:13;;;;;;;;;;;18.90;43.30;;;;;;5051574;28;19986;-65
2023/01/20 04:06:40;;;;;;;;;;;18.90;43.20;;;;;;5050903;28;19929;-64
2023/01/20 04:09:07;;;;;;;;;;;18.90;43.30;;;;;;5059356;28;19927;-64
2023/01/20 04:11:34;;;;;;;;;;;18.90;43.30;;;;;;5051051;28;19925;-64
2023/01/20 04:14:01;;;;;;;;;;;18.90;43.30;;;;;;5052653;28;19948;-64
2023/01/20 04:16:29;;;;;;;;;;;18.90;43.30;;;;;;5049641;28;19921;-64
2023/01/20 04:18:56;;;;;;;;;;;18.90;43.30;;;;;;5056202;28;19931;-64
2023/01/20 04:21:23;;;;;;;;;;;18.90;43.30;;;;;;5076129;28;19934;-64
2023/01/20 04:23:51;;;;;;;;;;;18.90;43.30;;;;;;5058446;28;19921;-64
2023/01/20 04:26:18;;;;;;;;;;;18.90;43.30;;;;;;5047309;28;19925;-64
2023/01/20 04:28:45;;;;;;;;;;;18.90;43.30;;;;;;5050715;28;19967;-64
2023/01/20 04:31:13;;;;;;;;;;;18.90;43.30;;;;;;5050438;28;20310;-63
2023/01/20 04:33:41;;;;;;;;;;;18.90;43.30;;;;;;5074635;28;19924;-64
2023/01/20 04:36:08;;;;;;;;;;;18.90;43.30;;;;;;5050887;28;19921;-64
2023/01/20 04:38:35;;;;;;;;;;;18.90;43.30;;;;;;5050580;28;19921;-64
2023/01/20 04:41:02;;;;;;;;;;;18.90;43.30;;;;;;5049956;28;19944;-64
2023/01/20 04:43:28;;;;;;;;;;;18.90;43.30;;;;;;5059291;28;19956;-64
2023/01/20 04:45:55;;;;;;;;;;;18.90;43.30;;;;;;5051831;28;19925;-64
2023/01/20 04:48:22;;;;;;;;;;;18.90;43.30;;;;;;5050262;28;20006;-63
2023/01/20 04:50:50;;;;;;;;;;;18.90;43.90;;;;;;5051616;28;19920;-64
2023/01/20 04:53:18;;;;;;;;;;;18.90;43.30;;;;;;5054463;28;19960;-64
2023/01/20 04:55:45;;;;;;;;;;;18.90;43.30;;;;;;5050316;28;19921;-64
2023/01/20 04:58:11;;;;;;;;;;;18.90;43.30;;;;;;5048674;28;19975;-64
2023/01/20 05:00:39;;;;;;;;;;;18.90;43.30;;;;;;5050392;28;19928;-64
2023/01/20 05:03:06;;;;;;;;;;;18.90;43.30;;;;;;5050098;28;19925;-64
2023/01/20 05:05:33;;;;;;;;;;;18.90;43.30;;;;;;5049690;28;20398;-64
2023/01/20 05:08:03;;;;;;;;;;;18.90;43.30;;;;;;5047809;28;19936;-64
2023/01/20 05:10:30;;;;;;;;;;;18.90;43.30;;;;;;5049758;28;19925;-64
2023/01/20 05:12:57;;;;;;;;;;;18.90;43.30;;;;;;5051549;28;19932;-63
2023/01/20 05:15:23;;;;;;;;;;;18.90;43.30;;;;;;5051147;28;19979;-64
2023/01/20 05:17:50;;;;;;;;;;;18.90;43.40;;;;;;5051245;28;19990;-64
2023/01/20 05:20:17;;;;;;;;;;;18.90;43.40;;;;;;5050043;28;19928;-64
2023/01/20 05:22:44;;;;;;;;;;;18.90;43.30;;;;;;5049139;28;20020;-64
2023/01/20 05:25:12;;;;;;;;;;;18.90;43.30;;;;;;5049441;28;19921;-64
2023/01/20 05:27:39;;;;;;;;;;;18.90;43.40;;;;;;5056026;28;19971;-64
2023/01/20 05:30:06;;;;;;;;;;;18.90;43.40;;;;;;5060428;28;19949;-63
2023/01/20 05:32:33;;;;;;;;;;;18.90;43.40;;;;;;5053936;28;19927;-64
2023/01/20 05:35:00;;;;;;;;;;;18.90;43.40;;;;;;5045927;28;19976;-64
2023/01/20 05:37:27;;;;;;;;;;;18.90;44.00;;;;;;5075678;28;19953;-63
2023/01/20 05:39:54;;;;;;;;;;;18.90;43.40;;;;;;5050004;28;19924;-63
2023/01/20 05:42:22;;;;;;;;;;;18.90;43.40;;;;;;5076991;28;19927;-63
2023/01/20 05:44:49;;;;;;;;;;;18.90;43.40;;;;;;5047784;28;20069;-63
2023/01/20 05:47:16;;;;;;;;;;;18.90;43.40;;;;;;5049340;28;19920;-63
2023/01/20 05:49:44;;;;;;;;;;;18.90;43.40;;;;;;5048680;28;19921;-64
2023/01/20 05:52:10;;;;;;;;;;;18.90;43.40;;;;;;5048920;28;19921;-64
2023/01/20 05:54:37;;;;;;;;;;;18.90;43.40;;;;;;5050104;28;19925;-64
2023/01/20 05:57:04;;;;;;;;;;;18.90;43.40;;;;;;5048752;28;19921;-63
2023/01/20 05:59:32;;;;;;;;;;;18.90;43.40;;;;;;5048674;28;19966;-63
2023/01/20 06:01:59;;;;;;;;;;;18.90;43.40;;;;;;5047520;28;19971;-63
2023/01/20 06:04:26;;;;;;;;;;;18.90;43.40;;;;;;5048836;28;19924;-64
2023/01/20 06:06:53;;;;;;;;;;;18.90;43.40;;;;;;5049272;28;19935;-64
2023/01/20 06:09:20;;;;;;;;;;;18.90;43.40;;;;;;5048620;28;19921;-64
2023/01/20 06:11:47;;;;;;;;;;;18.90;43.40;;;;;;5055109;28;19920;-63
2023/01/20 06:14:14;;;;;;;;;;;18.90;43.40;;;;;;5049032;28;19924;-64
2023/01/20 06:16:42;;;;;;;;;;;18.90;43.40;;;;;;5048959;28;20428;-64
2023/01/20 06:19:09;;;;;;;;;;;18.90;43.40;;;;;;5047904;28;20350;-63
2023/01/20 06:21:35;;;;;;;;;;;18.90;43.40;;;;;;5049943;28;19974;-63
2023/01/20 06:24:02;;;;;;;;;;;18.90;43.40;;;;;;5057818;28;20005;-63
2023/01/20 06:26:29;;;;;;;;;;;18.90;43.40;;;;;;5049398;28;19924;-63
2023/01/20 06:28:58;;;;;;;;;;;18.90;43.40;;;;;;5048245;28;19970;-63
2023/01/20 06:31:25;;;;;;;;;;;18.90;44.00;;;;;;5046240;28;19951;-63
2023/01/20 06:33:53;;;;;;;;;;;18.90;43.40;;;;;;5049804;28;20398;-63
2023/01/20 06:36:19;;;;;;;;;;;18.90;43.40;;;;;;5047798;28;19986;-64
2023/01/20 06:38:49;;;;;;;;;;;18.90;43.40;;;;;;5046955;28;20364;-64
2023/01/20 06:41:16;;;;;;;;;;;18.90;43.40;;;;;;5052206;28;20019;-63
2023/01/20 06:43:42;;;;;;;;;;;18.90;43.40;;;;;;5056780;28;19921;-64
2023/01/20 06:46:10;;;;;;;;;;;18.90;43.40;;;;;;5047436;28;19925;-63
2023/01/20 06:48:36;;;;;;;;;;;18.90;43.40;;;;;;5045553;28;19925;-64
2023/01/20 06:51:05;;;;;;;;;;;18.90;43.40;;;;;;5056754;28;20054;-63
2023/01/20 06:53:32;;;;;;;;;;;18.90;43.50;;;;;;5048764;28;19971;-63
2023/01/20 06:55:59;;;;;;;;;;;18.90;43.50;;;;;;5050136;28;19924;-63
2023/01/20 06:58:26;;;;;;;;;;;18.90;43.50;;;;;;5047844;28;19966;-63
2023/01/20 07:00:53;;;;;;;;;;;18.90;43.50;;;;;;5046232;28;19932;-63
2023/01/20 07:03:20;;;;;;;;;;;18.90;43.50;;;;;;5048205;28;19928;-64
2023/01/20 07:05:51;;;;;;;;;;;18.90;43.50;;;;;;5049472;28;19948;-63
2023/01/20 07:08:20;;;;;;;;;;;18.90;43.50;;;;;;5048242;28;20439;-63
2023/01/20 07:10:46;;;;;;;;;;;18.90;43.50;;;;;;5048661;28;19921;-63
2023/01/20 07:13:13;;;;;;;;;;;18.90;43.50;;;;;;5047884;28;20355;-64
2023/01/20 07:15:40;;;;;;;;;;;18.90;43.50;;;;;;5055923;28;19964;-63
2023/01/20 07:18:07;;;;;;;;;;;18.90;43.50;;;;;;5054537;28;19920;-64
2023/01/20 07:20:33;;;;;;;;;;;18.90;43.50;;;;;;5047706;28;19967;-64
2023/01/20 07:23:00;;;;;;;;;;;18.90;43.50;;;;;;5055001;28;19947;-64
2023/01/20 07:25:28;;;;;;;;;;;18.90;43.50;;;;;;5064394;28;19936;-64
2023/01/20 07:27:56;;;;;;;;;;;18.90;43.50;;;;;;5047882;28;19971;-65
2023/01/20 07:30:23;;;;;;;;;;;18.90;43.50;;;;;;5051694;28;19932;-64
2023/01/20 07:32:50;;;;;;;;;;;18.90;43.50;;;;;;5056276;28;19978;-64
2023/01/20 07:35:17;;;;;;;;;;;18.90;43.50;;;;;;5054844;28;19956;-64
2023/01/20 07:37:43;;;;;;;;;;;18.90;43.50;;;;;;5057490;28;19928;-64
2023/01/20 07:40:11;;;;;;;;;;;18.90;43.60;;;;;;5058409;28;19942;-64
2023/01/20 07:42:39;;;;;;;;;;;18.90;43.50;;;;;;5061709;28;19921;-64
2023/01/20 07:45:06;;;;;;;;;;;18.90;43.50;;;;;;5061779;28;19950;-63
2023/01/20 07:47:33;;;;;;;;;;;18.90;43.50;;;;;;5056399;28;19955;-64
2023/01/20 07:50:00;;;;;;;;;;;18.90;43.50;;;;;;5065820;28;19928;-63
2023/01/20 07:52:27;;;;;;;;;;;18.90;43.50;;;;;;5054750;28;19920;-64
2023/01/20 07:54:53;;;;;;;;;;;18.90;43.50;;;;;;5066487;28;19920;-64
2023/01/20 07:57:20;;;;;;;;;;;18.90;43.50;;;;;;5059174;28;19967;-63
2023/01/20 07:59:48;;;;;;;;;;;18.90;43.50;;;;;;5053108;28;19963;-63
2023/01/20 08:02:15;;;;;;;;;;;18.90;43.50;;;;;;5051145;28;19929;-64
2023/01/20 08:04:42;;;;;;;;;;;18.90;43.50;;;;;;5050945;28;19974;-63
2023/01/20 08:07:09;;;;;;;;;;;18.90;43.50;;;;;;5050399;28;19928;-63
2023/01/20 08:09:36;;;;;;;;;;;18.90;43.50;;;;;;5079739;28;20282;-64
2023/01/20 08:12:03;;;;;;;;;;;18.90;43.50;;;;;;5050499;28;19928;-64
2023/01/20 08:14:29;;;;;;;;;;;18.90;43.50;;;;;;5054383;28;19964;-63
2023/01/20 08:16:58;;;;;;;;;;;18.90;43.50;;;;;;5048730;28;19928;-62
2023/01/20 08:19:28;;;;;;;;;;;18.90;43.60;;;;;;5050069;28;19933;-63
2023/01/20 08:21:54;;;;;;;;;;;18.90;43.60;;;;;;5079354;28;19925;-64
2023/01/20 08:24:21;;;;;;;;;;;18.90;43.70;;;;;;5050426;28;20002;-64
2023/01/20 08:26:48;;;;;;;;;;;18.90;43.70;;;;;;5055862;28;19973;-63
2023/01/20 08:29:14;;;;;;;;;;;18.90;43.70;;;;;;5051435;28;20026;-65
2023/01/20 08:31:41;;;;;;;;;;;18.90;43.70;;;;;;5049738;28;19920;-63
2023/01/20 08:34:11;;;;;;;;;;;18.90;43.80;;;;;;5047517;28;19920;-62
2023/01/20 08:36:39;;;;;;;;;;;18.90;43.90;;;;;;5048025;28;19933;-63
2023/01/20 08:39:06;;;;;;;;;;;18.90;43.80;;;;;;5080087;28;19921;-63
2023/01/20 08:41:34;;;;;;;;;;;19.00;43.90;;;;;;5046525;28;20040;-65
2023/01/20 08:44:01;;;;;;;;;;;19.00;43.90;;;;;;5050111;28;19928;-62
2023/01/20 08:46:27;;;;;;;;;;;19.00;43.90;;;;;;5048987;28;20430;-63
2023/01/20 08:48:55;;;;;;;;;;;19.00;43.90;;;;;;5050947;28;19925;-63
2023/01/20 08:51:23;;;;;;;;;;;19.00;43.90;;;;;;5049850;28;19920;-63
2023/01/20 08:53:50;;;;;;;;;;;19.00;44.00;;;;;;5050301;28;20054;-62
2023/01/20 08:56:17;;;;;;;;;;;19.00;44.00;;;;;;5048328;28;19974;-63
2023/01/20 08:58:44;;;;;;;;;;;19.00;44.00;;;;;;5052606;28;19924;-62
2023/01/20 09:01:11;;;;;;;;;;;19.00;44.00;;;;;;5047887;28;19921;-62
2023/01/20 09:03:38;;;;;;;;;;;19.00;44.00;;;;;;5051630;28;19921;-63
2023/01/20 09:06:05;;;;;;;;;;;19.10;44.10;;;;;;5049976;28;19920;-64
2023/01/20 09:08:34;;;;;;;;;;;19.10;44.20;;;;;;5045737;28;20016;-62
2023/01/20 09:11:04;;;;;;;;;;;19.10;44.20;;;;;;5056562;28;19959;-63
2023/01/20 09:13:31;;;;;;;;;;;19.10;44.20;;;;;;5049975;28;19990;-65
2023/01/20 09:15:58;;;;;;;;;;;19.00;44.10;;;;;;5051143;28;19920;-63
2023/01/20 09:18:24;;;;;;;;;;;19.00;44.10;;;;;;5049812;28;19928;-60
2023/01/20 09:20:51;;;;;;;;;;;19.10;44.20;;;;;;5053705;28;19962;-64
2023/01/20 09:23:18;;;;;;;;;;;19.10;44.20;;;;;;5045349;28;19943;-63
2023/01/20 09:25:46;;;;;;;;;;;19.10;44.20;;;;;;5071260;28;19920;-64
2023/01/20 09:28:13;;;;;;;;;;;19.10;44.20;;;;;;5047696;28;20035;-62
2023/01/20 09:30:41;;;;;;;;;;;19.10;44.20;;;;;;5049294;28;19920;-66
2023/01/20 09:33:09;;;;;;;;;;;19.10;44.20;;;;;;5051235;28;19956;-64
2023/01/20 09:35:36;;;;;;;;;;;19.10;44.20;;;;;;5047835;28;20374;-61
2023/01/20 09:43:56;;;;;;;;;;;19.10;44.30;;;;;;5076574;28;19967;-62
2023/01/20 09:46:28;;;;;;;;;;;19.10;44.30;;;;;;5080750;28;19921;-64
2023/01/20 09:54:28;;;;;;;;;;;19.20;44.40;;;;;;5081824;28;19951;-63
2023/01/20 09:56:56;;;;;;;;;;;19.20;44.40;;;;;;5048232;28;19920;-65
2023/01/20 09:59:23;;;;;;;;;;;19.20;44.40;;;;;;5048259;28;20364;-65
2023/01/20 10:01:50;;;;;;;;;;;19.20;44.40;;;;;;5047030;28;20362;-65
2023/01/20 10:04:18;;;;;;;;;;;19.20;44.40;;;;;;5075861;28;19940;-64
2023/01/20 10:06:46;;;;;;;;;;;19.20;44.40;;;;;;5049762;28;19974;-62
2023/01/20 10:09:16;;;;;;;;;;;19.20;44.40;;;;;;5046816;28;20029;-63
2023/01/20 10:11:43;;;;;;;;;;;19.20;44.40;;;;;;5047933;28;19921;-63
2023/01/20 10:14:15;;;;;;;;;;;19.20;44.40;;;;;;5047305;28;19924;-62
2023/01/20 10:16:44;;;;;;;;;;;19.20;44.40;;;;;;5074508;28;19959;-65
2023/01/20 10:19:13;;;;;;;;;;;19.20;44.40;;;;;;5038632;28;20248;-59
2023/01/20 10:21:40;;;;;;;;;;;19.10;36.10;;;;;;5034955;28;19948;-62
2023/01/20 10:24:08;;;;;;;;;;;19.10;37.50;;;;;;5047642;28;19932;-59
2023/01/20 10:26:37;;;;;;;;;;;19.00;38.40;;;;;;5079822;28;19921;-59
2023/01/20 10:29:04;;;;;;;;;;;18.90;39.20;;;;;;5049027;28;19929;-61
2023/01/20 10:31:33;;;;;;;;;;;18.90;39.80;;;;;;5048658;28;20050;-60
2023/01/20 10:34:00;;;;;;;;;;;18.90;40.50;;;;;;5041468;28;19974;-63
2023/01/20 10:36:28;;;;;;;;;;;18.90;40.90;;;;;;5045243;28;19925;-61
2023/01/20 10:38:56;;;;;;;;;;;18.90;41.20;;;;;;5046173;28;19921;-59
2023/01/20 10:41:26;;;;;;;;;;;18.90;41.50;;;;;;5041659;28;19925;-59
2023/01/20 10:43:53;;;;;;;;;;;18.90;41.60;;;;;;5048621;28;19932;-58
2023/01/20 10:46:25;;;;;;;;;;;18.90;41.80;;;;;;5048162;28;19921;-59
2023/01/20 10:49:01;;;;;;;;;;;18.90;42.00;;;;;;5047457;28;19925;-64
2023/01/20 10:51:29;;;;;;;;;;;19.00;42.20;;;;;;5048232;28;19932;-64
2023/01/20 10:53:58;;;;;;;;;;;19.00;42.30;;;;;;5042127;28;20271;-60
2023/01/20 10:56:35;;;;;;;;;;;19.00;42.40;;;;;;5049534;28;19924;-61
2023/01/20 10:59:02;;;;;;;;;;;19.00;42.60;;;;;;5047999;28;19959;-60
2023/01/20 11:01:29;;;;;;;;;;;19.00;42.80;;;;;;5089801;28;20371;-59
2023/01/20 11:03:56;;;;;;;;;;;19.10;42.80;;;;;;5054364;28;19978;-59
2023/01/20 11:06:25;;;;;;;;;;;19.10;42.90;;;;;;5051319;28;19925;-60
2023/01/20 11:08:52;;;;;;;;;;;19.10;43.00;;;;;;5051584;28;19927;-59
2023/01/20 11:11:19;;;;;;;;;;;19.00;42.90;;;;;;5054807;28;19952;-59
2023/01/20 11:13:46;;;;;;;;;;;19.10;43.10;;;;;;5055982;28;19982;-60
2023/01/20 11:16:15;;;;;;;;;;;19.10;43.10;;;;;;5058023;28;19920;-64
2023/01/20 11:18:42;;;;;;;;;;;19.10;43.20;;;;;;5058376;28;19921;-62
2023/01/20 11:21:09;;;;;;;;;;;19.10;43.20;;;;;;5062025;28;19983;-59
2023/01/20 11:23:39;;;;;;;;;;;19.10;43.80;;;;;;5055647;28;19944;-58
2023/01/20 11:26:12;;;;;;;;;;;19.10;43.30;;;;;;5052616;28;19920;-59
2023/01/20 11:28:47;;;;;;;;;;;19.10;43.30;;;;;;5046479;28;19924;-60
2023/01/20 11:31:14;;;;;;;;;;;19.10;43.30;;;;;;5077730;28;19931;-64
2023/01/20 11:33:41;;;;;;;;;;;19.10;43.40;;;;;;5052116;28;19924;-61
2023/01/20 11:36:12;;;;;;;;;;;19.20;43.50;;;;;;5047699;28;19928;-61
2023/01/20 11:38:43;;;;;;;;;;;19.20;43.50;;;;;;5053160;28;19924;-59
2023/01/20 11:41:17;;;;;;;;;;;19.20;43.60;;;;;;5047025;28;19929;-63
2023/01/20 11:43:44;;;;;;;;;;;19.20;43.70;;;;;;5059632;28;19929;-63
2023/01/20 11:46:11;;;;;;;;;;;19.20;43.70;;;;;;5050872;28;20016;-59
2023/01/20 11:48:38;;;;;;;;;;;19.20;43.70;;;;;;5050653;28;19966;-62
2023/01/20 11:51:05;;;;;;;;;;;19.20;43.70;;;;;;5055366;28;20033;-59
2023/01/20 11:53:32;;;;;;;;;;;19.20;43.70;;;;;;5050613;28;20019;-59
2023/01/20 11:56:01;;;;;;;;;;;19.20;43.70;;;;;;5061130;28;20320;-58
2023/01/20 11:58:28;;;;;;;;;;;19.20;42.20;;;;;;5057772;28;19967;-59
2023/01/20 12:01:02;;;;;;;;;;;19.20;41.00;;;;;;5050393;28;19929;-59
2023/01/20 12:03:35;;;;;;;;;;;19.10;41.20;;;;;;5043608;28;20097;-60
2023/01/20 12:06:03;;;;;;;;;;;19.10;41.60;;;;;;5048867;28;19925;-64
2023/01/20 12:08:31;;;;;;;;;;;19.10;41.80;;;;;;5074343;28;19960;-59
2023/01/20 12:11:00;;;;;;;;;;;19.10;41.90;;;;;;5050020;28;19925;-60
2023/01/20 12:13:28;;;;;;;;;;;19.10;41.90;;;;;;5056288;28;19982;-59
2023/01/20 12:15:55;;;;;;;;;;;19.10;42.00;;;;;;5050491;28;19964;-62
2023/01/20 12:18:23;;;;;;;;;;;19.10;42.10;;;;;;5048824;28;20002;-59
2023/01/20 12:20:51;;;;;;;;;;;19.10;42.20;;;;;;5058857;28;19963;-60
2023/01/20 12:23:20;;;;;;;;;;;19.10;42.30;;;;;;5047569;28;19967;-61
2023/01/20 12:25:48;;;;;;;;;;;19.10;42.40;;;;;;5052914;28;19927;-61
2023/01/20 12:28:18;;;;;;;;;;;19.10;42.50;;;;;;5059468;28;19967;-62
2023/01/20 12:30:52;;;;;;;;;;;19.10;42.50;;;;;;5049906;28;19927;-60
2023/01/20 12:33:20;;;;;;;;;;;19.10;42.60;;;;;;5077458;28;19990;-59
2023/01/20 12:35:54;;;;;;;;;;;19.20;42.70;;;;;;5089832;28;19924;-61
2023/01/20 12:38:20;;;;;;;;;;;19.20;42.80;;;;;;5052681;28;19925;-60
2023/01/20 12:40:47;;;;;;;;;;;19.20;42.80;;;;;;5082324;28;19932;-62
2023/01/20 12:43:35;;;;;;;;;;;19.20;42.90;;;;;;5051321;28;19921;-60
2023/01/20 12:46:13;;;;;;;;;;;19.20;42.90;;;;;;5022754;28;19943;-59
2023/01/20 12:48:43;;;;;;;;;;;19.20;43.00;;;;;;5058516;28;19936;-64
2023/01/20 12:51:14;;;;;;;;;;;19.30;43.10;;;;;;5048058;28;19978;-62
2023/01/20 12:53:44;;;;;;;;;;;19.30;43.10;;;;;;5048228;28;19939;-60
2023/01/20 12:56:12;;;;;;;;;;;19.30;43.20;;;;;;5050853;28;20260;-61
2023/01/20 12:58:42;;;;;;;;;;;19.30;43.20;;;;;;5048636;28;19929;-58
2023/01/20 13:01:26;;;;;;;;;;;19.30;43.30;;;;;;5075996;28;19921;-58
2023/01/20 13:04:04;;;;;;;;;;;19.30;43.30;;;;;;5040871;28;19963;-59
2023/01/20 13:06:41;;;;;;;;;;;19.40;43.40;;;;;;5071327;28;20023;-59
2023/01/20 13:09:22;;;;;;;;;;;19.40;43.40;;;;;;5053756;28;19928;-58
2023/01/20 13:11:53;;;;;;;;;;;19.40;43.50;;;;;;5071344;28;19920;-59
2023/01/20 13:14:20;;;;;;;;;;;19.40;43.50;;;;;;5054274;28;20325;-59
2023/01/20 13:16:48;;;;;;;;;;;19.40;43.50;;;;;;5060374;28;19967;-59
2023/01/20 13:19:18;;;;;;;;;;;19.40;43.50;;;;;;5063336;28;19946;-58
2023/01/20 13:21:45;;;;;;;;;;;19.40;43.50;;;;;;5053117;28;19979;-59
2023/01/20 13:24:17;;;;;;;;;;;19.40;43.50;;;;;;5049438;28;19920;-59
2023/01/20 13:26:44;;;;;;;;;;;19.40;43.50;;;;;;5049444;28;19928;-59
2023/01/20 13:29:20;;;;;;;;;;;19.40;43.60;;;;;;5053291;28;19924;-59
2023/01/20 13:31:47;;;;;;;;;;;19.40;43.60;;;;;;5055665;28;19927;-59
2023/01/20 13:34:32;;;;;;;;;;;19.50;43.70;;;;;;5053192;28;19921;-59
2023/01/20 13:37:17;;;;;;;;;;;19.50;43.70;;;;;;5053791;28;19921;-60
2023/01/20 13:39:46;;;;;;;;;;;19.50;43.70;;;;;;5053902;28;19921;-60
2023/01/20 13:42:34;;;;;;;;;;;19.40;43.60;;;;;;5051946;28;19924;-58
2023/01/20 13:45:18;;;;;;;;;;;19.50;43.70;;;;;;5043878;28;20374;-60
2023/01/20 13:47:48;;;;;;;;;;;19.40;43.60;;;;;;5056125;28;19927;-58
2023/01/20 13:50:21;;;;;;;;;;;19.50;43.80;;;;;;5048979;28;19921;-59
2023/01/20 13:53:11;;;;;;;;;;;19.50;43.80;;;;;;5070986;28;19988;-59
2023/01/20 13:55:53;;;;;;;;;;;19.40;43.70;;;;;;5052181;28;20019;-59
2023/01/20 13:58:20;;;;;;;;;;;19.40;43.70;;;;;;5053540;28;19920;-59
2023/01/20 14:00:47;;;;;;;;;;;19.40;43.70;;;;;;5054420;28;19975;-59
2023/01/20 14:03:17;;;;;;;;;;;19.50;43.80;;;;;;5054240;28;20389;-59
2023/01/20 14:05:47;;;;;;;;;;;19.40;43.80;;;;;;5049476;28;19948;-59
2023/01/20 14:08:14;;;;;;;;;;;19.50;43.90;;;;;;5063242;28;19978;-59
2023/01/20 14:10:41;;;;;;;;;;;19.40;43.80;;;;;;5050484;28;19920;-58
2023/01/20 14:13:10;;;;;;;;;;;19.40;43.90;;;;;;5052011;28;19928;-58
2023/01/20 14:15:38;;;;;;;;;;;19.50;43.90;;;;;;5053311;28;19921;-59
2023/01/20 14:18:05;;;;;;;;;;;19.50;43.90;;;;;;5052794;28;19956;-59
2023/01/20 14:20:32;;;;;;;;;;;19.50;43.90;;;;;;5053274;28;20428;-60
2023/01/20 14:23:32;;;;;;;;;;;19.50;43.90;;;;;;5053138;28;19978;-60
2023/01/20 14:26:02;;;;;;;;;;;19.40;43.90;;;;;;4992174;28;19922;-63
2023/01/20 14:28:30;;;;;;;;;;;19.50;43.90;;;;;;5009111;28;19925;-60
2023/01/20 14:31:16;;;;;;;;;;;19.50;43.90;;;;;;5016338;28;19927;-61
2023/01/20 14:33:44;;;;;;;;;;;19.40;43.90;;;;;;5054841;28;19986;-59
2023/01/20 14:36:15;;;;;;;;;;;19.50;44.00;;;;;;5052951;28;19924;-59